createdAt,value
2022-09-30T00:01:22.068Z,10.07
2022-09-30T00:03:24.410Z,9.57
2022-09-30T00:05:26.310Z,13.90
2022-09-30T00:07:27.967Z,11.50
2022-09-30T00:09:29.780Z,8.20
2022-09-30T00:11:34.040Z,9.75
2022-09-30T00:13:38.019Z,9.77
2022-09-30T00:15:40.098Z,9.60
2022-09-30T00:17:41.908Z,10.45
2022-09-30T00:19:43.768Z,9.25
2022-09-30T00:21:45.676Z,10.55
2022-09-30T00:23:47.434Z,9.82
2022-09-30T00:25:49.119Z,9.05
2022-09-30T00:27:50.876Z,12.55
2022-09-30T00:29:52.561Z,9.43
2022-09-30T00:31:54.446Z,9.50
2022-09-30T00:34:14.421Z,9.07
2022-09-30T00:36:16.122Z,11.68
2022-09-30T00:38:17.782Z,9.05
2022-09-30T00:40:20.164Z,9.85
2022-09-30T00:42:22.694Z,11.63
2022-09-30T00:45:06.556Z,8.55
2022-09-30T00:47:42.396Z,8.95
2022-09-30T00:49:44.094Z,11.02
2022-09-30T00:51:49.398Z,11.50
2022-09-30T00:53:58.350Z,9.48
2022-09-30T00:56:06.929Z,10.85
2022-09-30T00:58:09.906Z,12.57
2022-09-30T01:00:11.734Z,11.00
2022-09-30T01:02:14.581Z,11.73
2022-09-30T01:04:18.280Z,11.18
2022-09-30T01:06:22.779Z,12.48
2022-09-30T01:08:25.498Z,12.50
2022-09-30T01:10:27.264Z,9.82
2022-09-30T01:12:29.041Z,13.98
2022-09-30T01:14:30.721Z,11.18
2022-09-30T01:17:07.861Z,10.60
2022-09-30T01:19:27.901Z,10.23
2022-09-30T01:22:19.999Z,11.63
2022-09-30T01:24:58.854Z,9.88
2022-09-30T01:27:23.524Z,10.55
2022-09-30T01:29:31.393Z,9.95
2022-09-30T01:31:52.627Z,10.20
2022-09-30T01:34:06.593Z,13.52
2022-09-30T01:36:40.369Z,12.55
2022-09-30T01:39:08.401Z,11.00
2022-09-30T01:41:26.186Z,12.30
2022-09-30T01:43:45.485Z,10.75
2022-09-30T01:45:52.257Z,12.32
2022-09-30T01:48:01.925Z,13.13
2022-09-30T01:50:18.195Z,12.23
2022-09-30T01:52:28.348Z,12.48
2022-09-30T01:54:36.114Z,10.77
2022-09-30T01:57:07.018Z,13.40
2022-09-30T01:59:13.466Z,12.13
2022-09-30T02:01:31.824Z,16.77
2022-09-30T02:03:40.442Z,12.02
2022-09-30T02:05:53.681Z,14.82
2022-09-30T02:07:58.988Z,13.40
2022-09-30T02:10:10.936Z,17.65
2022-09-30T02:12:16.133Z,12.77
2022-09-30T02:14:28.822Z,18.45
2022-09-30T02:16:47.440Z,13.77
2022-09-30T02:18:53.007Z,15.10
2022-09-30T02:20:59.660Z,22.23
2022-09-30T02:23:07.716Z,15.05
2022-09-30T02:25:15.118Z,16.30
2022-09-30T02:27:21.604Z,15.18
2022-09-30T02:29:27.831Z,14.32
2022-09-30T02:31:32.392Z,14.43
2022-09-30T02:33:49.702Z,15.13
2022-09-30T02:35:57.723Z,12.68
2022-09-30T02:38:20.222Z,17.67
2022-09-30T02:40:39.892Z,11.43
2022-09-30T02:42:44.090Z,13.77
2022-09-30T02:44:47.494Z,12.60
2022-09-30T02:46:56.977Z,12.20
2022-09-30T02:49:20.014Z,12.57
2022-09-30T02:51:30.063Z,11.40
2022-09-30T02:53:46.297Z,16.58
2022-09-30T02:56:15.279Z,11.85
2022-09-30T02:58:21.472Z,19.67
2022-09-30T03:00:24.219Z,17.23
2022-09-30T03:02:25.965Z,15.43
2022-09-30T03:04:31.165Z,12.93
2022-09-30T03:06:33.040Z,19.08
2022-09-30T03:08:35.112Z,14.02
2022-09-30T03:10:37.000Z,23.92
2022-09-30T03:12:58.971Z,16.42
2022-09-30T03:15:20.831Z,18.25
2022-09-30T03:17:44.779Z,17.73
2022-09-30T03:19:46.346Z,13.95
2022-09-30T03:22:11.590Z,22.60
2022-09-30T03:24:13.304Z,19.95
2022-09-30T03:26:37.753Z,17.83
2022-09-30T03:29:01.123Z,105.97
2022-09-30T03:31:38.545Z,35.40
2022-09-30T03:33:53.298Z,26.33
2022-09-30T03:36:06.775Z,31.23
2022-09-30T03:38:41.660Z,79.03
2022-09-30T03:41:01.024Z,22.40
2022-09-30T03:43:14.161Z,21.35
2022-09-30T03:45:30.451Z,19.50
2022-09-30T03:47:35.218Z,23.08
2022-09-30T03:49:43.243Z,20.92
2022-09-30T03:51:45.135Z,24.38
2022-09-30T03:53:47.078Z,24.42
2022-09-30T03:55:51.543Z,24.67
2022-09-30T03:57:54.454Z,25.73
2022-09-30T04:00:00.030Z,20.83
2022-09-30T04:02:02.599Z,44.90
2022-09-30T04:04:04.369Z,19.63
2022-09-30T04:06:09.831Z,22.33
2022-09-30T04:08:11.906Z,21.50
2022-09-30T04:10:13.465Z,18.83
2022-09-30T04:12:15.082Z,17.30
2022-09-30T04:14:16.951Z,16.35
2022-09-30T04:16:19.083Z,18.92
2022-09-30T04:18:20.741Z,32.92
2022-09-30T04:20:22.473Z,21.85
2022-09-30T04:22:26.486Z,26.40
2022-09-30T04:24:28.327Z,19.00
2022-09-30T04:26:30.125Z,18.35
2022-09-30T04:28:32.244Z,19.75
2022-09-30T04:30:33.933Z,21.85
2022-09-30T04:32:35.627Z,17.77
2022-09-30T04:34:37.883Z,20.35
2022-09-30T04:36:39.886Z,20.63
2022-09-30T04:38:41.535Z,19.88
2022-09-30T04:40:43.471Z,24.60
2022-09-30T04:42:45.242Z,19.42
2022-09-30T04:44:48.213Z,19.23
2022-09-30T04:46:50.784Z,19.48
2022-09-30T04:48:52.336Z,19.27
2022-09-30T04:50:54.067Z,20.17
2022-09-30T04:52:56.989Z,23.48
2022-09-30T04:54:58.801Z,46.42
2022-09-30T04:57:00.430Z,23.42
2022-09-30T04:59:02.092Z,33.70
2022-09-30T05:01:12.807Z,23.77
2022-09-30T05:03:15.098Z,17.58
2022-09-30T05:05:16.854Z,35.47
2022-09-30T05:07:18.580Z,32.30
2022-09-30T05:09:20.370Z,23.17
2022-09-30T05:11:22.727Z,25.00
2022-09-30T05:13:26.024Z,22.17
2022-09-30T05:15:27.907Z,27.98
2022-09-30T05:17:30.706Z,27.08
2022-09-30T05:19:32.475Z,27.23
2022-09-30T05:21:34.170Z,28.45
2022-09-30T05:23:35.856Z,25.40
2022-09-30T05:25:37.472Z,26.98
2022-09-30T05:27:39.070Z,27.25
2022-09-30T05:29:40.662Z,32.30
2022-09-30T05:31:42.870Z,27.13
2022-09-30T05:33:45.196Z,23.55
2022-09-30T05:35:47.819Z,25.48
2022-09-30T05:37:49.518Z,26.17
2022-09-30T05:39:51.179Z,35.50
2022-09-30T05:41:52.802Z,31.23
2022-09-30T05:43:54.529Z,27.98
2022-09-30T05:45:57.321Z,32.95
2022-09-30T05:47:58.993Z,39.88
2022-09-30T05:50:00.745Z,32.08
2022-09-30T05:52:02.537Z,32.40
2022-09-30T05:54:04.129Z,34.58
2022-09-30T05:56:07.504Z,34.92
2022-09-30T05:58:09.100Z,44.08
2022-09-30T06:00:11.456Z,50.13
2022-09-30T06:02:14.378Z,36.50
2022-09-30T06:04:16.315Z,41.53
2022-09-30T06:06:19.639Z,41.25
2022-09-30T06:08:21.653Z,40.92
2022-09-30T06:10:24.252Z,45.40
2022-09-30T06:12:27.633Z,48.47
2022-09-30T06:14:29.547Z,42.50
2022-09-30T06:16:32.131Z,38.08
2022-09-30T06:18:33.823Z,39.10
2022-09-30T06:20:38.991Z,40.60
2022-09-30T06:22:43.429Z,40.17
2022-09-30T06:24:45.833Z,35.60
2022-09-30T06:26:47.479Z,34.63
2022-09-30T06:28:50.276Z,39.58
2022-09-30T06:30:51.889Z,164.30
2022-09-30T06:32:57.132Z,120.47
2022-09-30T06:34:58.807Z,119.90
2022-09-30T06:37:01.366Z,49.50
2022-09-30T06:39:04.852Z,52.60
2022-09-30T06:41:07.289Z,41.40
2022-09-30T06:43:09.415Z,39.50
2022-09-30T06:45:20.306Z,41.78
2022-09-30T06:47:26.159Z,45.65
2022-09-30T06:49:34.937Z,35.30
2022-09-30T06:51:42.677Z,44.95
2022-09-30T06:53:44.481Z,38.17
2022-09-30T06:55:46.140Z,41.67
2022-09-30T06:57:48.266Z,40.90
2022-09-30T06:59:50.735Z,38.33
2022-09-30T07:01:52.675Z,40.50
2022-09-30T07:03:58.292Z,43.38
2022-09-30T07:06:01.865Z,43.17
2022-09-30T07:08:03.732Z,44.20
2022-09-30T07:10:05.914Z,40.90
2022-09-30T07:12:07.559Z,45.92
2022-09-30T07:14:10.285Z,49.97
2022-09-30T07:16:15.698Z,54.47
2022-09-30T07:18:20.557Z,53.95
2022-09-30T07:20:22.461Z,46.10
2022-09-30T07:22:34.623Z,60.92
2022-09-30T07:24:36.500Z,50.35
2022-09-30T07:26:39.616Z,50.53
2022-09-30T07:28:41.628Z,50.67
2022-09-30T07:30:43.862Z,47.70
2022-09-30T07:32:45.479Z,51.03
2022-09-30T07:34:47.455Z,53.40
2022-09-30T07:36:49.498Z,50.72
2022-09-30T07:38:51.519Z,50.13
2022-09-30T07:41:06.866Z,45.35
2022-09-30T07:43:28.013Z,49.38
2022-09-30T07:45:29.658Z,38.25
2022-09-30T07:47:31.329Z,36.65
2022-09-30T07:49:32.957Z,31.90
2022-09-30T07:51:38.593Z,38.50
2022-09-30T07:53:41.237Z,32.60
2022-09-30T07:55:42.788Z,31.35
2022-09-30T07:57:44.393Z,28.70
2022-09-30T07:59:46.075Z,27.25
2022-09-30T08:01:47.734Z,29.77
2022-09-30T08:03:53.478Z,37.88
2022-09-30T08:05:55.342Z,38.97
2022-09-30T08:07:56.920Z,34.60
2022-09-30T08:09:58.550Z,36.75
2022-09-30T08:12:02.870Z,32.72
2022-09-30T08:14:05.507Z,36.83
2022-09-30T08:16:07.712Z,29.73
2022-09-30T08:18:09.636Z,30.63
2022-09-30T08:20:13.795Z,27.35
2022-09-30T08:22:17.325Z,25.25
2022-09-30T08:24:19.105Z,31.30
2022-09-30T08:26:20.790Z,25.98
2022-09-30T08:28:22.383Z,26.48
2022-09-30T08:30:24.158Z,21.50
2022-09-30T08:32:25.872Z,24.30
2022-09-30T08:34:27.533Z,24.75
2022-09-30T08:36:29.552Z,22.83
2022-09-30T08:38:31.256Z,24.50
2022-09-30T08:40:34.409Z,22.85
2022-09-30T08:43:09.220Z,24.33
2022-09-30T08:45:26.109Z,26.70
2022-09-30T08:48:05.367Z,26.77
2022-09-30T08:50:54.256Z,18.02
2022-09-30T08:53:03.888Z,20.77
2022-09-30T08:55:06.394Z,23.05
2022-09-30T08:57:10.871Z,21.77
2022-09-30T08:59:28.578Z,20.33
2022-09-30T09:01:34.887Z,19.77
2022-09-30T09:03:36.613Z,20.65
2022-09-30T09:05:52.489Z,22.77
2022-09-30T09:08:03.538Z,27.58
2022-09-30T09:10:16.584Z,28.88
2022-09-30T09:12:31.636Z,27.23
2022-09-30T09:14:43.647Z,28.35
2022-09-30T09:17:27.057Z,24.10
2022-09-30T09:19:38.476Z,26.85
2022-09-30T09:21:49.211Z,21.67
2022-09-30T09:23:53.692Z,21.77
2022-09-30T09:25:55.774Z,21.63
2022-09-30T09:28:03.518Z,16.95
2022-09-30T09:30:16.457Z,20.27
2022-09-30T09:32:18.990Z,24.98
2022-09-30T09:34:23.535Z,17.30
2022-09-30T09:36:46.310Z,16.83
2022-09-30T09:39:07.086Z,15.05
2022-09-30T09:41:17.517Z,19.05
2022-09-30T09:43:48.342Z,16.70
2022-09-30T09:46:00.574Z,15.25
2022-09-30T09:48:02.273Z,15.18
2022-09-30T09:50:06.646Z,10.35
2022-09-30T09:52:12.479Z,14.27
2022-09-30T09:54:17.374Z,12.27
2022-09-30T09:56:29.720Z,16.85
2022-09-30T09:58:34.192Z,15.07
2022-09-30T10:00:47.959Z,14.00
2022-09-30T10:05:26.448Z,11.60
2022-09-30T10:07:30.325Z,17.08
2022-09-30T10:09:38.193Z,13.75
2022-09-30T10:11:39.816Z,6.82
2022-09-30T10:13:45.410Z,8.85
2022-09-30T10:15:47.990Z,7.78
2022-09-30T10:17:57.791Z,7.67
2022-09-30T10:20:07.594Z,10.20
2022-09-30T10:22:09.299Z,8.40
2022-09-30T10:24:28.755Z,9.20
2022-09-30T10:26:30.395Z,12.82
2022-09-30T10:28:35.111Z,8.65
2022-09-30T10:30:41.000Z,5.30
2022-09-30T10:32:42.626Z,8.05
2022-09-30T10:35:03.387Z,10.77
2022-09-30T10:37:11.460Z,8.75
2022-09-30T10:39:28.910Z,7.47
2022-09-30T10:41:32.509Z,6.95
2022-09-30T10:43:44.903Z,9.13
2022-09-30T10:46:01.320Z,4.50
2022-09-30T10:48:17.915Z,5.97
2022-09-30T10:50:22.737Z,9.30
2022-09-30T10:52:26.665Z,5.50
2022-09-30T10:54:40.681Z,7.72
2022-09-30T10:56:45.171Z,5.72
2022-09-30T10:58:51.804Z,6.45
2022-09-30T11:01:25.141Z,5.25
2022-09-30T11:03:41.130Z,10.27
2022-09-30T11:05:45.020Z,10.02
2022-09-30T11:08:00.252Z,7.43
2022-09-30T11:10:14.075Z,6.13
2022-09-30T11:15:01.186Z,7.28
2022-09-30T11:17:04.075Z,5.93
2022-09-30T11:19:05.606Z,5.97
2022-09-30T11:21:15.506Z,10.30
2022-09-30T11:23:37.478Z,3.88
2022-09-30T11:25:48.825Z,6.57
2022-09-30T11:28:09.827Z,4.50
2022-09-30T11:30:28.095Z,3.67
2022-09-30T11:32:48.316Z,4.55
2022-09-30T11:34:59.760Z,4.05
2022-09-30T11:37:22.678Z,7.10
2022-09-30T11:39:35.093Z,5.47
2022-09-30T11:41:40.592Z,3.67
2022-09-30T11:43:45.309Z,4.05
2022-09-30T11:46:03.353Z,4.28
2022-09-30T11:48:20.668Z,4.00
2022-09-30T11:50:44.386Z,8.38
2022-09-30T11:53:25.261Z,4.35
2022-09-30T11:55:38.859Z,3.63
2022-09-30T11:57:46.273Z,2.65
2022-09-30T12:00:16.413Z,4.15
2022-09-30T12:02:39.299Z,6.00
2022-09-30T12:04:43.104Z,2.60
2022-09-30T12:06:52.050Z,2.67
2022-09-30T12:09:02.401Z,7.60
2022-09-30T12:11:59.794Z,4.07
2022-09-30T12:14:07.614Z,3.80
2022-09-30T12:16:21.999Z,3.72
2022-09-30T12:18:40.242Z,5.22
2022-09-30T12:20:44.801Z,3.40
2022-09-30T12:22:47.752Z,3.95
2022-09-30T12:24:49.353Z,3.05
2022-09-30T12:26:51.521Z,7.10
2022-09-30T12:29:33.573Z,2.40
2022-09-30T12:31:54.798Z,3.92
2022-09-30T12:34:31.877Z,6.25
2022-09-30T12:36:45.540Z,4.07
2022-09-30T12:38:57.892Z,4.95
2022-09-30T12:40:59.424Z,5.03
2022-09-30T12:43:07.701Z,5.78
2022-09-30T12:45:22.233Z,5.10
2022-09-30T12:47:31.563Z,3.78
2022-09-30T12:49:34.055Z,4.20
2022-09-30T12:51:40.552Z,4.72
2022-09-30T12:53:42.396Z,2.60
2022-09-30T12:55:44.339Z,7.93
2022-09-30T12:57:47.310Z,4.40
2022-09-30T12:59:58.117Z,4.63
2022-09-30T13:02:01.372Z,3.80
2022-09-30T13:04:02.971Z,4.70
2022-09-30T13:06:06.700Z,4.68
2022-09-30T13:08:09.802Z,4.50
2022-09-30T13:10:31.055Z,5.45
2022-09-30T13:12:44.366Z,3.50
2022-09-30T13:14:45.982Z,3.75
2022-09-30T13:17:10.293Z,3.92
2022-09-30T13:19:21.243Z,2.25
2022-09-30T13:21:24.034Z,1.90
2022-09-30T13:23:41.972Z,3.65
2022-09-30T13:25:56.379Z,3.53
2022-09-30T13:28:20.687Z,3.75
2022-09-30T13:30:22.464Z,5.88
2022-09-30T13:32:57.660Z,3.85
2022-09-30T13:34:59.609Z,5.05
2022-09-30T13:37:03.300Z,5.53
2022-09-30T13:39:23.157Z,2.80
2022-09-30T13:41:26.185Z,4.15
2022-09-30T13:43:34.134Z,3.20
2022-09-30T13:45:39.574Z,4.07
2022-09-30T13:47:48.226Z,2.95
2022-09-30T13:50:14.094Z,5.00
2022-09-30T13:52:23.748Z,3.75
2022-09-30T13:54:31.894Z,3.50
2022-09-30T13:56:35.268Z,4.05
2022-09-30T13:59:10.335Z,2.78
2022-09-30T14:02:10.822Z,5.28
2022-09-30T14:04:33.338Z,2.20
2022-09-30T14:06:37.743Z,3.83
2022-09-30T14:08:48.143Z,6.75
2022-09-30T14:10:59.963Z,3.60
2022-09-30T14:13:42.567Z,3.63
2022-09-30T14:16:02.041Z,3.65
2022-09-30T14:18:33.149Z,5.22
2022-09-30T14:21:11.355Z,3.60
2022-09-30T14:23:15.038Z,2.22
2022-09-30T14:25:18.808Z,6.05
2022-09-30T14:27:29.079Z,3.90
2022-09-30T14:30:04.557Z,3.47
2022-09-30T14:32:39.749Z,4.82
2022-09-30T14:38:15.565Z,5.40
2022-09-30T14:40:25.305Z,5.53
2022-09-30T14:42:32.318Z,3.60
2022-09-30T14:44:36.539Z,5.35
2022-09-30T14:46:41.284Z,4.43
2022-09-30T14:48:44.102Z,3.22
2022-09-30T14:51:01.226Z,2.63
2022-09-30T14:53:03.669Z,4.22
2022-09-30T14:55:28.861Z,6.05
2022-09-30T14:57:31.470Z,2.75
2022-09-30T14:59:34.748Z,3.30
2022-09-30T15:04:03.674Z,4.88
2022-09-30T15:06:07.143Z,3.55
2022-09-30T15:10:24.135Z,3.30
2022-09-30T15:12:26.821Z,7.47
2022-09-30T15:14:28.672Z,7.32
2022-09-30T15:16:33.692Z,4.90
2022-09-30T15:18:44.626Z,3.90
2022-09-30T15:20:46.333Z,3.42
2022-09-30T15:22:48.710Z,5.90
2022-09-30T15:24:51.403Z,6.75
2022-09-30T15:26:55.633Z,6.78
2022-09-30T15:28:57.441Z,7.60
2022-09-30T15:30:59.250Z,5.88
2022-09-30T15:33:04.161Z,4.07
2022-09-30T15:35:17.303Z,8.23
2022-09-30T15:37:25.063Z,4.93
2022-09-30T15:39:47.541Z,10.85
2022-09-30T15:41:49.980Z,5.25
2022-09-30T15:43:52.671Z,4.47
2022-09-30T15:45:58.301Z,7.18
2022-09-30T15:48:02.592Z,8.30
2022-09-30T15:50:05.289Z,6.80
2022-09-30T15:52:36.342Z,9.07
2022-09-30T15:54:39.305Z,12.55
2022-09-30T15:56:42.408Z,6.90
2022-09-30T15:59:03.241Z,6.28
2022-09-30T16:01:27.836Z,6.70
2022-09-30T16:03:30.584Z,6.38
2022-09-30T16:05:33.044Z,6.75
2022-09-30T16:07:35.024Z,6.32
2022-09-30T16:09:41.197Z,6.57
2022-09-30T16:11:45.244Z,7.07
2022-09-30T16:13:48.178Z,6.95
2022-09-30T16:15:51.076Z,5.00
2022-09-30T16:17:52.740Z,7.60
2022-09-30T16:19:59.287Z,7.70
2022-09-30T16:22:01.277Z,12.70
2022-09-30T16:24:03.040Z,8.70
2022-09-30T16:26:20.904Z,5.85
2022-09-30T16:28:22.673Z,8.20
2022-09-30T16:30:25.071Z,7.18
2022-09-30T16:32:27.599Z,8.00
2022-09-30T16:34:30.023Z,7.63
2022-09-30T16:36:32.808Z,6.78
2022-09-30T16:38:34.853Z,23.35
2022-09-30T16:40:38.007Z,22.40
2022-09-30T16:42:39.598Z,25.35
2022-09-30T16:44:44.576Z,20.38
2022-09-30T16:46:46.285Z,15.35
2022-09-30T16:48:47.861Z,9.07
2022-09-30T16:51:14.544Z,9.90
2022-09-30T16:53:16.181Z,9.38
2022-09-30T16:55:17.799Z,10.10
2022-09-30T16:57:19.490Z,16.63
2022-09-30T16:59:21.084Z,12.23
2022-09-30T17:01:25.455Z,11.63
2022-09-30T17:03:28.187Z,15.05
2022-09-30T17:05:29.833Z,10.57
2022-09-30T17:07:31.414Z,14.48
2022-09-30T17:09:33.113Z,10.25
2022-09-30T17:11:35.862Z,18.95
2022-09-30T17:13:37.944Z,13.30
2022-09-30T17:15:39.826Z,10.25
2022-09-30T17:17:41.456Z,24.05
2022-09-30T17:19:43.092Z,29.33
2022-09-30T17:21:46.078Z,24.45
2022-09-30T17:23:47.986Z,16.00
2022-09-30T17:25:49.954Z,20.70
2022-09-30T17:27:51.766Z,23.92
2022-09-30T17:29:53.396Z,21.67
2022-09-30T17:31:55.807Z,11.45
2022-09-30T17:33:57.567Z,14.38
2022-09-30T17:36:00.712Z,18.88
2022-09-30T17:38:06.844Z,14.98
2022-09-30T17:40:27.867Z,13.43
2022-09-30T17:42:47.759Z,9.20
2022-09-30T17:44:49.496Z,13.30
2022-09-30T17:47:00.787Z,8.55
2022-09-30T17:49:02.408Z,6.75
2022-09-30T17:51:04.327Z,7.13
2022-09-30T17:53:06.302Z,8.00
2022-09-30T17:55:08.194Z,6.15
2022-09-30T17:57:09.946Z,9.63
2022-09-30T17:59:11.545Z,9.30
2022-09-30T18:01:14.031Z,5.78
2022-09-30T18:03:15.969Z,4.35
2022-09-30T18:05:17.569Z,11.07
2022-09-30T18:07:21.068Z,6.82
2022-09-30T18:09:23.646Z,8.75
2022-09-30T18:11:26.931Z,6.63
2022-09-30T18:13:28.759Z,11.70
2022-09-30T18:15:31.233Z,7.45
2022-09-30T18:17:32.896Z,9.02
2022-09-30T18:19:35.751Z,13.93
2022-09-30T18:21:38.001Z,13.90
2022-09-30T18:23:39.841Z,10.63
2022-09-30T18:25:43.884Z,9.88
2022-09-30T18:27:49.825Z,9.95
2022-09-30T18:29:51.821Z,7.20
2022-09-30T18:31:53.463Z,7.32
2022-09-30T18:33:56.019Z,7.70
2022-09-30T18:36:00.265Z,8.05
2022-09-30T18:38:02.445Z,7.95
2022-09-30T18:40:04.857Z,7.57
2022-09-30T18:42:06.739Z,8.45
2022-09-30T18:44:09.109Z,9.35
2022-09-30T18:46:11.578Z,7.07
2022-09-30T18:48:13.594Z,11.23
2022-09-30T18:50:17.256Z,15.70
2022-09-30T18:54:20.915Z,11.73
2022-09-30T18:56:23.656Z,14.30
2022-09-30T18:58:25.894Z,12.47
2022-09-30T19:00:29.821Z,13.23
2022-09-30T19:02:32.440Z,14.98
2022-09-30T19:04:34.056Z,17.88
2022-09-30T19:06:35.856Z,21.65
2022-09-30T19:08:37.458Z,12.90
2022-09-30T19:10:41.655Z,9.68
2022-09-30T19:12:45.929Z,12.27
2022-09-30T19:14:47.830Z,12.48
2022-09-30T19:16:51.311Z,9.95
2022-09-30T19:18:54.779Z,12.25
2022-09-30T19:20:56.426Z,10.70
2022-09-30T19:22:58.373Z,17.33
2022-09-30T19:25:00.147Z,7.30
2022-09-30T19:27:02.112Z,10.07
2022-09-30T19:29:05.474Z,15.70
2022-09-30T19:31:15.413Z,12.48
2022-09-30T19:33:20.108Z,15.23
2022-09-30T19:35:34.476Z,11.60
2022-09-30T19:37:51.128Z,15.93
2022-09-30T19:39:56.734Z,13.13
2022-09-30T19:42:03.158Z,11.65
2022-09-30T19:44:05.948Z,10.32
2022-09-30T19:46:09.839Z,8.35
2022-09-30T19:48:11.538Z,10.23
2022-09-30T19:50:13.211Z,9.65
2022-09-30T19:52:21.947Z,10.23
2022-09-30T19:54:37.482Z,13.48
2022-09-30T19:56:41.624Z,11.02
2022-09-30T19:58:46.106Z,9.77
2022-09-30T20:00:54.010Z,10.88
2022-09-30T20:02:57.582Z,10.48
2022-09-30T20:05:00.581Z,12.88
2022-09-30T20:07:02.274Z,12.90
2022-09-30T20:09:06.277Z,9.63
2022-09-30T20:11:10.928Z,9.45
2022-09-30T20:13:12.505Z,13.77
2022-09-30T20:15:32.794Z,14.70
2022-09-30T20:17:35.038Z,13.30
2022-09-30T20:19:36.669Z,12.75
2022-09-30T20:21:38.542Z,12.68
2022-09-30T20:23:41.106Z,9.25
2022-09-30T20:25:42.944Z,10.48
2022-09-30T20:27:48.615Z,12.73
2022-09-30T20:30:12.166Z,10.70
2022-09-30T20:32:13.749Z,13.35
2022-09-30T20:34:16.803Z,15.25
2022-09-30T20:36:20.089Z,11.00
2022-09-30T20:38:24.892Z,12.93
2022-09-30T20:40:26.714Z,12.38
2022-09-30T20:42:30.972Z,11.82
2022-09-30T20:44:33.210Z,8.85
2022-09-30T20:46:35.163Z,10.52
2022-09-30T20:48:38.411Z,11.25
2022-09-30T20:50:40.207Z,7.78
2022-09-30T20:52:41.850Z,13.55
2022-09-30T20:54:43.728Z,8.70
2022-09-30T20:57:06.388Z,10.05
2022-09-30T20:59:08.538Z,8.00
2022-09-30T21:01:14.451Z,8.13
2022-09-30T21:03:16.262Z,7.03
2022-09-30T21:05:18.353Z,9.38
2022-09-30T21:07:20.346Z,9.23
2022-09-30T21:09:21.961Z,8.68
2022-09-30T21:11:24.371Z,7.50
2022-09-30T21:13:26.538Z,8.68
2022-09-30T21:15:28.715Z,8.45
2022-09-30T21:17:31.386Z,9.43
2022-09-30T21:19:33.286Z,9.82
2022-09-30T21:21:35.269Z,8.07
2022-09-30T21:23:37.483Z,10.10
2022-09-30T21:25:39.254Z,9.70
2022-09-30T21:27:40.958Z,9.77
2022-09-30T21:29:43.709Z,7.95
2022-09-30T21:31:45.500Z,10.90
2022-09-30T21:33:56.418Z,9.80
2022-09-30T21:36:02.566Z,9.02
2022-09-30T21:38:04.275Z,16.30
2022-09-30T21:40:06.469Z,6.65
2022-09-30T21:42:08.161Z,9.32
2022-09-30T21:44:10.085Z,12.52
2022-09-30T21:46:13.921Z,13.27
2022-09-30T21:48:15.564Z,9.38
2022-09-30T21:50:17.242Z,18.60
2022-09-30T21:52:18.858Z,9.43
2022-09-30T21:54:20.490Z,15.25
2022-09-30T21:56:23.002Z,11.40
2022-09-30T21:58:26.056Z,13.63
2022-09-30T22:00:28.041Z,9.55
2022-09-30T22:02:29.765Z,11.48
2022-09-30T22:04:31.837Z,12.68
2022-09-30T22:06:33.691Z,8.82
2022-09-30T22:08:40.853Z,10.30
2022-09-30T22:10:43.474Z,13.60
2022-09-30T22:12:46.414Z,8.18
2022-09-30T22:14:48.040Z,10.30
2022-09-30T22:16:50.023Z,11.40
2022-09-30T22:18:56.165Z,9.65
2022-09-30T22:21:03.575Z,11.93
2022-09-30T22:23:05.180Z,10.32
2022-09-30T22:25:07.730Z,8.23
2022-09-30T22:27:09.374Z,7.90
2022-09-30T22:29:12.187Z,12.50
2022-09-30T22:31:22.349Z,8.83
2022-09-30T22:33:42.493Z,17.55
2022-09-30T22:36:02.979Z,10.43
2022-09-30T22:38:16.639Z,9.52
2022-09-30T22:40:18.269Z,11.10
2022-09-30T22:42:19.973Z,13.00
2022-09-30T22:44:24.763Z,12.55
2022-09-30T22:46:26.719Z,7.90
2022-09-30T22:48:29.878Z,14.75
2022-09-30T22:50:35.591Z,9.98
2022-09-30T22:52:37.201Z,14.30
2022-09-30T22:54:39.050Z,9.82
2022-09-30T22:56:41.030Z,8.55
2022-09-30T22:58:42.636Z,11.57
2022-09-30T23:00:55.229Z,12.73
2022-09-30T23:02:56.950Z,10.30
2022-09-30T23:04:59.705Z,13.05
2022-09-30T23:07:01.394Z,15.73
2022-09-30T23:09:07.125Z,9.02
2022-09-30T23:11:10.563Z,10.00
2022-09-30T23:13:13.379Z,10.05
2022-09-30T23:15:15.361Z,9.97
2022-09-30T23:17:16.964Z,11.07
2022-09-30T23:19:19.208Z,8.40
2022-09-30T23:21:21.278Z,10.13
2022-09-30T23:23:23.117Z,8.15
2022-09-30T23:25:24.747Z,15.05
2022-09-30T23:27:26.424Z,11.77
2022-09-30T23:29:28.055Z,12.75
2022-09-30T23:31:30.096Z,10.35
2022-09-30T23:33:31.826Z,11.48
2022-09-30T23:35:33.539Z,9.18
2022-09-30T23:37:35.197Z,10.75
2022-09-30T23:39:37.026Z,11.98
2022-09-30T23:41:38.986Z,8.32
2022-09-30T23:43:45.817Z,11.60
2022-09-30T23:45:47.792Z,10.52
2022-09-30T23:47:49.527Z,11.55
2022-09-30T23:49:51.160Z,11.63
2022-09-30T23:51:52.805Z,8.80
2022-09-30T23:53:54.729Z,13.55
2022-09-30T23:55:57.903Z,10.10
2022-09-30T23:57:59.507Z,11.98
